METAR Data
IDs: Format: Raw Decoded Include TAF

Data at: 1711 UTC 30 Oct 2020

METAR for:KAUN (Auburn Muni, CA, US)
Text:KAUN 301655Z AUTO 11004KT 10SM CLR 20/M06 A3011 RMK A01
Temperature: 20.0°C ( 68°F)
Dewpoint: -6.0°C ( 21°F) [RH = 17%]
Pressure (altimeter):30.11 inches Hg (1019.7 mb)
Winds:from the ESE (110 degrees) at 5 MPH (4 knots; 2.1 m/s)
Visibility:10 or more sm (16+ km)
Ceiling:at least 12,000 feet AGL
Clouds:sky clear below 12,000 feet AGL
QC Flag:automated observation with no human augmentation